createdAt,value
2023-02-17T00:00:52.438Z,99462.17
2023-02-17T00:04:07.325Z,99457.00
2023-02-17T00:07:19.452Z,99459.63
2023-02-17T00:10:31.408Z,99458.87
2023-02-17T00:13:43.700Z,99458.87
2023-02-17T00:16:55.905Z,99449.36
2023-02-17T00:20:08.177Z,99453.95
2023-02-17T00:23:20.142Z,99461.05
2023-02-17T00:26:32.183Z,99453.09
2023-02-17T00:29:44.415Z,99453.00
2023-02-17T00:32:56.386Z,99448.69
2023-02-17T00:36:12.862Z,99449.70
2023-02-17T00:39:25.377Z,99452.50
2023-02-17T00:42:37.481Z,99450.88
2023-02-17T00:45:49.584Z,99445.78
2023-02-17T00:49:01.634Z,99430.30
2023-02-17T00:52:13.721Z,99436.55
2023-02-17T00:55:26.726Z,99426.19
2023-02-17T00:58:39.214Z,99427.29
2023-02-17T01:01:51.451Z,99420.36
2023-02-17T01:05:03.621Z,99416.97
2023-02-17T01:08:17.779Z,99423.22
2023-02-17T01:11:34.006Z,99421.59
2023-02-17T01:14:45.989Z,99419.15
2023-02-17T01:17:58.249Z,99406.97
2023-02-17T01:21:10.560Z,99405.26
2023-02-17T01:24:22.730Z,99393.91
2023-02-17T01:27:34.838Z,99386.89
2023-02-17T01:30:46.910Z,99390.70
2023-02-17T01:34:00.178Z,99384.83
2023-02-17T01:37:12.608Z,99379.84
2023-02-17T01:40:24.860Z,99383.47
2023-02-17T01:43:37.546Z,99365.43
2023-02-17T01:46:52.141Z,99367.38
2023-02-17T01:50:04.200Z,99353.58
2023-02-17T01:53:21.852Z,99351.19
2023-02-17T01:56:32.635Z,99354.05
2023-02-17T01:59:46.311Z,99351.66
2023-02-17T02:03:00.912Z,99354.68
2023-02-17T02:06:17.818Z,99360.16
2023-02-17T02:09:34.613Z,99350.92
2023-02-17T02:12:48.299Z,99345.91
2023-02-17T02:16:06.105Z,99354.49
2023-02-17T02:19:42.519Z,99356.34
2023-02-17T02:23:20.369Z,99352.50
2023-02-17T02:27:22.522Z,99345.85
2023-02-17T02:31:14.641Z,99349.16
2023-02-17T02:34:32.128Z,99352.55
2023-02-17T02:37:50.025Z,99348.16
2023-02-17T02:41:10.284Z,99356.11
2023-02-17T02:44:24.771Z,99356.97
2023-02-17T02:48:00.815Z,99355.25
2023-02-17T02:51:31.522Z,99349.88
2023-02-17T02:54:56.349Z,99361.73
2023-02-17T02:58:14.578Z,99349.44
2023-02-17T03:01:33.479Z,99350.34
2023-02-17T03:04:52.314Z,99347.16
2023-02-17T03:08:10.740Z,99349.27
2023-02-17T03:11:27.036Z,99350.80
2023-02-17T03:14:44.769Z,99342.78
2023-02-17T03:17:56.929Z,99347.09
2023-02-17T03:21:15.703Z,99337.45
2023-02-17T03:24:28.065Z,99334.82
2023-02-17T03:27:40.277Z,99336.59
2023-02-17T03:30:52.466Z,99344.46
2023-02-17T03:34:05.340Z,99345.47
2023-02-17T03:37:17.405Z,99343.79
2023-02-17T03:40:29.528Z,99343.11
2023-02-17T03:43:41.597Z,99333.71
2023-02-17T03:46:53.695Z,99330.47
2023-02-17T03:50:05.810Z,99335.80
2023-02-17T03:53:20.831Z,99331.41
2023-02-17T03:56:33.403Z,99328.94
2023-02-17T03:59:45.470Z,99328.27
2023-02-17T04:02:57.762Z,99321.25
2023-02-17T04:06:12.096Z,99324.78
2023-02-17T04:09:24.280Z,99328.94
2023-02-17T04:12:36.341Z,99310.42
2023-02-17T04:15:48.472Z,99311.20
2023-02-17T04:19:00.910Z,99306.53
2023-02-17T04:22:13.019Z,99309.00
2023-02-17T04:25:25.210Z,99312.30
2023-02-17T04:28:37.920Z,99315.78
2023-02-17T04:31:50.015Z,99316.55
2023-02-17T04:35:02.117Z,99319.94
2023-02-17T04:38:15.725Z,99314.50
2023-02-17T04:41:27.930Z,99303.00
2023-02-17T04:44:40.148Z,99296.56
2023-02-17T04:47:52.072Z,99291.13
2023-02-17T04:51:04.032Z,99284.77
2023-02-17T04:54:16.017Z,99289.11
2023-02-17T04:57:28.376Z,99294.17
2023-02-17T05:00:40.386Z,99296.73
2023-02-17T05:03:52.464Z,99295.03
2023-02-17T05:07:04.498Z,99297.41
2023-02-17T05:10:18.522Z,99307.81
2023-02-17T05:13:30.672Z,99295.55
2023-02-17T05:16:42.694Z,99289.34
2023-02-17T05:19:54.690Z,99285.20
2023-02-17T05:23:06.708Z,99284.63
2023-02-17T05:26:18.688Z,99286.39
2023-02-17T05:29:30.672Z,99287.40
2023-02-17T05:32:42.749Z,99281.33
2023-02-17T05:35:54.733Z,99283.25
2023-02-17T05:39:06.863Z,99280.81
2023-02-17T05:42:19.096Z,99289.60
2023-02-17T05:45:31.377Z,99278.95
2023-02-17T05:48:44.299Z,99289.27
2023-02-17T05:51:56.297Z,99300.80
2023-02-17T05:55:08.843Z,99287.73
2023-02-17T05:58:20.926Z,99292.98
2023-02-17T06:01:32.864Z,99290.73
2023-02-17T06:04:45.399Z,99285.05
2023-02-17T06:07:57.484Z,99277.00
2023-02-17T06:11:10.128Z,99273.11
2023-02-17T06:14:22.173Z,99267.52
2023-02-17T06:17:34.509Z,99265.72
2023-02-17T06:20:46.993Z,99260.31
2023-02-17T06:23:59.108Z,99256.39
2023-02-17T06:27:11.230Z,99252.30
2023-02-17T06:30:26.467Z,99259.93
2023-02-17T06:33:38.653Z,99248.00
2023-02-17T06:36:50.607Z,99234.67
2023-02-17T06:40:02.699Z,99231.13
2023-02-17T06:43:17.368Z,99228.31
2023-02-17T06:46:30.472Z,99227.75
2023-02-17T06:52:43.876Z,99227.91
2023-02-17T06:55:57.497Z,99238.06
2023-02-17T06:59:11.271Z,99239.77
2023-02-17T07:02:24.736Z,99250.94
2023-02-17T07:05:39.925Z,99257.70
2023-02-17T07:08:52.278Z,99253.02
2023-02-17T07:12:05.074Z,99247.50
2023-02-17T07:15:21.236Z,99254.77
2023-02-17T07:18:34.473Z,99261.24
2023-02-17T07:21:47.683Z,99263.61
2023-02-17T07:52:59.732Z,99229.92
2023-02-17T08:08:35.722Z,99199.02
2023-02-17T08:12:04.665Z,99194.11
2023-02-17T08:43:16.589Z,99175.09
2023-02-17T08:46:30.282Z,99159.17
2023-02-17T08:49:49.896Z,99147.59
2023-02-17T09:08:19.524Z,99133.82
2023-02-17T09:11:34.187Z,99130.83
2023-02-17T09:14:46.375Z,99133.65
2023-02-17T09:18:02.044Z,99124.33
2023-02-17T09:24:15.615Z,99116.08
2023-02-17T09:27:27.690Z,99120.05
2023-02-17T09:33:40.032Z,99099.33
2023-02-17T09:36:52.396Z,99101.27
2023-02-17T09:40:04.559Z,99103.44
2023-02-17T09:43:23.030Z,99097.45
2023-02-17T09:46:44.845Z,99091.30
2023-02-17T09:49:58.204Z,99087.67
2023-02-17T09:56:19.770Z,99077.92
2023-02-17T10:02:41.147Z,99087.94
2023-02-17T10:06:04.023Z,99098.67
2023-02-17T10:12:20.569Z,99080.72
2023-02-17T10:15:39.617Z,99083.27
2023-02-17T10:19:01.018Z,99067.70
2023-02-17T10:22:21.032Z,99064.23
2023-02-17T10:25:49.314Z,99056.86
2023-02-17T10:29:07.341Z,99063.59
2023-02-17T10:32:31.279Z,99063.70
2023-02-17T10:36:01.096Z,99050.45
2023-02-17T10:39:19.776Z,99047.94
2023-02-17T10:42:38.021Z,99046.85
2023-02-17T10:45:53.670Z,99037.84
2023-02-17T10:49:07.734Z,99028.09
2023-02-17T10:52:23.205Z,99041.34
2023-02-17T10:55:44.042Z,99024.50
2023-02-17T10:59:02.959Z,99014.79
2023-02-17T11:02:26.379Z,99017.34
2023-02-17T11:05:40.645Z,99012.61
2023-02-17T11:09:00.937Z,99017.34
2023-02-17T11:12:21.074Z,98991.02
2023-02-17T11:15:37.140Z,98999.67
2023-02-17T11:18:53.695Z,98996.78
2023-02-17T11:22:08.910Z,98982.42
2023-02-17T11:25:32.798Z,98985.41
2023-02-17T11:28:45.556Z,98973.19
2023-02-17T11:32:07.760Z,98982.86
2023-02-17T11:35:34.974Z,98976.50
2023-02-17T11:38:51.915Z,98981.59
2023-02-17T11:42:04.007Z,98981.78
2023-02-17T11:45:23.365Z,98976.50
2023-02-17T11:49:02.715Z,98979.15
2023-02-17T11:52:35.768Z,98967.13
2023-02-17T11:55:59.612Z,98950.75
2023-02-17T11:59:34.919Z,98943.79
2023-02-17T12:03:49.290Z,98931.85
2023-02-17T12:07:33.259Z,98929.69
2023-02-17T12:10:58.348Z,98931.72
2023-02-17T12:14:34.681Z,98922.11
2023-02-17T12:17:55.246Z,98916.55
2023-02-17T12:21:13.791Z,98916.31
2023-02-17T12:24:32.314Z,98919.41
2023-02-17T12:28:04.283Z,98923.75
2023-02-17T12:31:25.789Z,98916.72
2023-02-17T12:34:41.303Z,98910.91
2023-02-17T12:37:59.749Z,98911.82
2023-02-17T12:41:16.786Z,98908.24
2023-02-17T12:44:35.216Z,98903.52
2023-02-17T12:47:56.719Z,98907.39
2023-02-17T12:51:15.709Z,98895.66
2023-02-17T12:57:37.306Z,98885.63
2023-02-17T13:00:55.194Z,98892.63
2023-02-17T13:04:08.721Z,98879.24
2023-02-17T13:07:56.595Z,98884.11
2023-02-17T13:11:12.301Z,98887.70
2023-02-17T13:14:37.062Z,98888.70
2023-02-17T13:18:03.191Z,98875.03
2023-02-17T13:21:32.039Z,98865.23
2023-02-17T13:24:56.864Z,98872.72
2023-02-17T13:28:23.658Z,98859.17
2023-02-17T13:31:37.562Z,98863.63
2023-02-17T13:34:51.288Z,98852.89
2023-02-17T13:38:03.426Z,98855.41
2023-02-17T13:41:19.876Z,98851.23
2023-02-17T13:44:37.892Z,98842.16
2023-02-17T13:47:52.603Z,98836.05
2023-02-17T13:51:07.768Z,98828.11
2023-02-17T13:54:25.419Z,98821.97
2023-02-17T13:57:40.425Z,98817.77
2023-02-17T14:00:52.691Z,98811.38
2023-02-17T14:04:06.621Z,98806.08
2023-02-17T14:07:19.866Z,98794.39
2023-02-17T14:10:33.131Z,98792.70
2023-02-17T14:13:48.882Z,98790.76
2023-02-17T14:17:10.778Z,98790.52
2023-02-17T14:20:39.095Z,98779.07
2023-02-17T14:23:55.100Z,98765.69
2023-02-17T14:27:12.715Z,98768.80
2023-02-17T14:30:35.812Z,98771.45
2023-02-17T14:33:57.590Z,98751.67
2023-02-17T14:37:22.428Z,98750.68
2023-02-17T14:40:34.831Z,98745.52
2023-02-17T14:43:47.031Z,98745.38
2023-02-17T14:46:59.192Z,98738.53
2023-02-17T14:50:13.266Z,98722.53
2023-02-17T14:56:32.731Z,98722.08
2023-02-17T14:59:45.596Z,98726.67
2023-02-17T15:08:58.632Z,98717.45
2023-02-17T15:12:15.674Z,98705.84
2023-02-17T15:21:36.302Z,98698.01
2023-02-17T15:24:49.261Z,98698.26
2023-02-17T15:28:03.342Z,98688.34
2023-02-17T15:31:20.938Z,98684.14
2023-02-17T15:34:37.268Z,98684.41
2023-02-17T15:37:52.627Z,98676.02
2023-02-17T15:41:06.229Z,98670.44
2023-02-17T15:44:23.245Z,98657.59
2023-02-17T15:47:33.725Z,98647.78
2023-02-17T15:50:48.582Z,98635.66
2023-02-17T15:54:03.813Z,98644.88
2023-02-17T16:00:28.760Z,98618.89
2023-02-17T16:03:41.373Z,98612.80
2023-02-17T16:06:53.940Z,98614.59
2023-02-17T16:10:06.677Z,98599.95
2023-02-17T16:13:22.004Z,98596.60
2023-02-17T16:16:37.836Z,98591.31
2023-02-17T16:19:50.482Z,98585.89
2023-02-17T16:23:02.860Z,98582.16
2023-02-17T16:26:23.803Z,98578.42
2023-02-17T16:29:36.075Z,98572.99
2023-02-17T16:32:48.176Z,98570.07
2023-02-17T16:36:00.431Z,98558.86
2023-02-17T16:39:20.259Z,98552.45
2023-02-17T16:42:32.531Z,98567.78
2023-02-17T16:45:50.082Z,98555.83
2023-02-17T16:49:02.403Z,98555.30
2023-02-17T16:52:24.155Z,98546.16
2023-02-17T16:55:40.009Z,98548.55
2023-02-17T16:58:52.000Z,98550.91
2023-02-17T17:02:04.116Z,98534.23
2023-02-17T17:05:17.686Z,98532.68
2023-02-17T17:08:29.864Z,98532.53
2023-02-17T17:11:42.034Z,98533.38
2023-02-17T17:14:54.153Z,98523.64
2023-02-17T17:18:09.635Z,98505.68
2023-02-17T17:21:23.369Z,98501.34
2023-02-17T17:24:35.487Z,98498.02
2023-02-17T17:27:48.338Z,98494.13
2023-02-17T17:31:02.532Z,98495.52
2023-02-17T17:34:15.155Z,98489.13
2023-02-17T17:37:27.294Z,98500.27
2023-02-17T17:40:43.747Z,98498.22
2023-02-17T17:43:56.196Z,98482.19
2023-02-17T17:47:09.197Z,98460.31
2023-02-17T17:50:25.846Z,98471.45
2023-02-17T17:53:38.039Z,98467.41
2023-02-17T17:56:51.635Z,98465.46
2023-02-17T18:00:04.064Z,98439.53
2023-02-17T18:03:16.482Z,98436.63
2023-02-17T18:06:33.093Z,98442.91
2023-02-17T18:09:48.776Z,98446.80
2023-02-17T18:13:01.416Z,98450.69
2023-02-17T18:16:13.961Z,98454.18
2023-02-17T18:19:27.571Z,98463.78
2023-02-17T18:22:39.563Z,98467.01
2023-02-17T18:25:51.756Z,98470.33
2023-02-17T18:29:04.449Z,98464.91
2023-02-17T18:32:18.013Z,98467.95
2023-02-17T18:35:33.241Z,98458.20
2023-02-17T18:38:46.030Z,98447.61
2023-02-17T18:41:58.394Z,98442.31
2023-02-17T18:45:11.923Z,98456.25
2023-02-17T18:48:24.079Z,98439.23
2023-02-17T18:51:36.518Z,98439.23
2023-02-17T18:54:50.766Z,98442.18
2023-02-17T18:58:03.614Z,98430.49
2023-02-17T19:01:22.545Z,98432.86
2023-02-17T19:04:35.169Z,98433.27
2023-02-17T19:07:47.513Z,98435.23
2023-02-17T19:10:59.856Z,98443.86
2023-02-17T19:14:12.433Z,98436.47
2023-02-17T19:20:31.019Z,98444.00
2023-02-17T19:23:47.198Z,98441.09
2023-02-17T19:27:01.337Z,98436.34
2023-02-17T19:30:16.752Z,98450.42
2023-02-17T19:33:29.353Z,98442.88
2023-02-17T19:36:41.710Z,98441.77
2023-02-17T19:39:54.848Z,98447.31
2023-02-17T19:43:07.223Z,98438.67
2023-02-17T19:46:21.397Z,98440.76
2023-02-17T19:49:33.808Z,98448.68
2023-02-17T19:52:46.064Z,98445.58
2023-02-17T19:55:58.085Z,98455.61
2023-02-17T19:59:10.072Z,98448.61
2023-02-17T20:02:41.766Z,98446.23
2023-02-17T20:05:56.816Z,98452.76
2023-02-17T20:09:13.514Z,98454.14
2023-02-17T20:12:25.803Z,98462.94
2023-02-17T20:15:37.838Z,98471.70
2023-02-17T20:18:55.220Z,98465.28
2023-02-17T20:22:08.328Z,98462.79
2023-02-17T20:25:20.971Z,98460.41
2023-02-17T20:28:34.891Z,98460.72
2023-02-17T20:31:48.183Z,98461.25
2023-02-17T20:35:02.929Z,98455.80
2023-02-17T20:38:16.126Z,98446.03
2023-02-17T20:41:32.323Z,98445.61
2023-02-17T20:44:49.782Z,98450.38
2023-02-17T20:48:07.030Z,98450.17
2023-02-17T20:51:19.917Z,98443.21
2023-02-17T20:54:33.276Z,98445.71
2023-02-17T20:57:48.399Z,98439.13
2023-02-17T21:01:00.679Z,98440.79
2023-02-17T21:04:15.412Z,98442.63
2023-02-17T21:07:32.172Z,98430.87
2023-02-17T21:10:50.174Z,98432.70
2023-02-17T21:14:06.244Z,98418.45
2023-02-17T21:17:22.618Z,98428.22
2023-02-17T21:20:35.511Z,98422.22
2023-02-17T21:23:48.160Z,98418.88
2023-02-17T21:27:01.164Z,98428.52
2023-02-17T21:30:18.354Z,98436.64
2023-02-17T21:33:30.488Z,98431.77
2023-02-17T21:36:42.908Z,98426.73
2023-02-17T21:39:55.095Z,98427.05
2023-02-17T21:43:21.786Z,98418.40
2023-02-17T21:46:34.778Z,98413.25
2023-02-17T21:49:47.318Z,98419.52
2023-02-17T21:52:59.501Z,98410.28
2023-02-17T21:56:13.434Z,98404.39
2023-02-17T21:59:25.481Z,98404.65
2023-02-17T22:02:37.515Z,98408.84
2023-02-17T22:05:49.617Z,98412.23
2023-02-17T22:09:02.806Z,98406.94
2023-02-17T22:12:15.403Z,98380.17
2023-02-17T22:15:27.471Z,98377.69
2023-02-17T22:18:39.628Z,98376.08
2023-02-17T22:21:53.527Z,98378.13
2023-02-17T22:25:05.822Z,98362.88
2023-02-17T22:28:17.813Z,98363.63
2023-02-17T22:31:32.853Z,98360.13
2023-02-17T22:34:45.267Z,98349.67
2023-02-17T22:37:57.641Z,98361.45
2023-02-17T22:41:13.288Z,98362.27
2023-02-17T22:44:25.651Z,98384.88
2023-02-17T22:47:37.844Z,98400.81
2023-02-17T22:50:49.855Z,98399.84
2023-02-17T22:54:03.993Z,98419.92
2023-02-17T22:57:16.106Z,98396.48
2023-02-17T23:00:28.769Z,98411.39
2023-02-17T23:03:42.369Z,98422.24
2023-02-17T23:06:54.318Z,98384.75
2023-02-17T23:10:06.373Z,98382.14
2023-02-17T23:13:19.009Z,98365.58
2023-02-17T23:16:31.076Z,98378.70
2023-02-17T23:19:45.199Z,98360.25
2023-02-17T23:22:57.621Z,98376.39
2023-02-17T23:26:10.667Z,98388.59
2023-02-17T23:29:24.107Z,98386.39
2023-02-17T23:32:36.064Z,98399.02
2023-02-17T23:35:49.252Z,98398.84
2023-02-17T23:39:03.506Z,98398.66
2023-02-17T23:42:15.572Z,98416.76
2023-02-17T23:51:28.055Z,98406.08
2023-02-17T23:54:40.999Z,98417.41
2023-02-17T23:57:53.730Z,98421.00
